Time;durP1;ratioP1;P1;durP2;ratioP2;P2;SDS_P1;SDS_P2;PMS_P1;PMS_P2;Temp;Humidity;BMP_temperature;BMP_pressure;BME280_temperature;BME280_humidity;BME280_pressure;Samples;Min_cycle;Max_cycle;Signal;HPM_P1;HPM_P2
2022/11/19 00:00:39;;;;;;;9.80;5.40;;;;;;;14.31;69.05;98869.83;106139;1301;21968;-71
2022/11/19 00:03:04;;;;;;;9.40;5.00;;;;;;;14.36;68.96;98869.56;106145;1304;22025;-64
2022/11/19 00:05:35;;;;;;;9.60;4.70;;;;;;;14.38;69.29;98868.06;105971;1304;21967;-63
2022/11/19 00:08:01;;;;;;;10.40;4.90;;;;;;;14.40;69.34;98858.78;105919;1306;21960;-63
2022/11/19 00:10:26;;;;;;;7.50;5.00;;;;;;;14.43;69.30;98851.02;105946;1304;25237;-63
2022/11/19 00:12:54;;;;;;;9.70;4.60;;;;;;;14.49;69.19;98851.23;106068;1304;21976;-64
2022/11/19 00:15:26;;;;;;;9.40;5.10;;;;;;;14.56;69.13;98850.88;105996;1303;21978;-71
2022/11/19 00:17:52;;;;;;;7.70;5.30;;;;;;;14.58;69.27;98849.73;105981;1305;21974;-71
2022/11/19 00:20:19;;;;;;;8.60;5.00;;;;;;;14.62;69.24;98852.13;106075;1302;21963;-64
2022/11/19 00:22:50;;;;;;;11.10;6.40;;;;;;;14.66;69.27;98850.02;106086;1299;21976;-70
2022/11/19 00:25:16;;;;;;;7.60;5.20;;;;;;;14.68;69.37;98844.95;106026;1304;21968;-65
2022/11/19 00:27:42;;;;;;;11.10;6.10;;;;;;;14.72;69.19;98829.58;106003;1304;21977;-65
2022/11/19 00:30:08;;;;;;;7.60;5.70;;;;;;;14.73;69.13;98826.55;106053;1304;21960;-71
2022/11/19 00:32:34;;;;;;;12.50;9.70;;;;;;;14.75;69.11;98831.54;106042;1304;21986;-63
2022/11/19 00:34:59;;;;;;;12.00;7.50;;;;;;;14.82;69.21;98830.64;105899;1306;21977;-70
2022/11/19 00:37:25;;;;;;;12.70;7.50;;;;;;;14.83;69.37;98823.15;105909;1306;23462;-65
2022/11/19 00:39:53;;;;;;;15.10;7.90;;;;;;;14.89;69.26;98813.30;106051;1304;21960;-64
2022/11/19 00:42:19;;;;;;;19.10;8.40;;;;;;;14.92;69.78;98806.80;105928;1305;21981;-71
2022/11/19 00:44:46;;;;;;;22.90;8.40;;;;;;;15.07;70.55;98803.50;105882;1304;21978;-71
2022/11/19 00:47:12;;;;;;;25.80;8.80;;;;;;;15.39;71.35;98795.36;105877;1306;21961;-64
2022/11/19 00:49:39;;;;;;;24.70;9.40;;;;;;;15.73;71.17;98791.26;106073;1304;21975;-64
2022/11/19 00:52:05;;;;;;;23.50;8.00;;;;;;;16.00;71.15;98786.34;105972;1304;21964;-64
2022/11/19 00:54:31;;;;;;;24.80;8.70;;;;;;;16.21;71.11;98790.56;105881;1303;21965;-72
2022/11/19 00:56:56;;;;;;;30.00;9.30;;;;;;;16.37;71.06;98789.91;105933;1304;21976;-72
2022/11/19 00:59:22;;;;;;;23.30;8.70;;;;;;;16.46;70.92;98789.39;106040;1305;21973;-71
2022/11/19 01:01:48;;;;;;;28.40;9.00;;;;;;;16.53;71.06;98788.10;106025;1304;21965;-64
2022/11/19 01:04:14;;;;;;;24.80;8.90;;;;;;;16.67;71.25;98785.26;106066;1304;21964;-71
2022/11/19 01:06:39;;;;;;;21.60;8.20;;;;;;;16.86;71.29;98778.41;105928;1304;22023;-72
2022/11/19 01:09:05;;;;;;;26.10;8.20;;;;;;;16.99;71.37;98778.86;105879;1306;23083;-72
2022/11/19 01:11:32;;;;;;;28.10;9.10;;;;;;;17.06;71.15;98780.52;106021;1306;21963;-71
2022/11/19 01:13:59;;;;;;;14.80;7.60;;;;;;;17.11;71.56;98783.41;105936;1306;22017;-64
2022/11/19 01:16:33;;;;;;;25.30;8.70;;;;;;;17.16;72.08;98781.12;105949;1305;21967;-64
2022/11/19 01:18:59;;;;;;;26.20;8.90;;;;;;;17.20;72.12;98784.95;106053;1304;21966;-72
2022/11/19 01:21:28;;;;;;;21.20;8.00;;;;;;;17.21;72.28;98780.78;106125;1303;21978;-70
2022/11/19 01:23:54;;;;;;;28.20;9.60;;;;;;;17.24;72.53;98783.95;106170;1304;21968;-70
2022/11/19 01:26:20;;;;;;;24.00;8.80;;;;;;;17.29;72.17;98780.27;106100;1304;22008;-65
2022/11/19 01:28:47;;;;;;;25.00;10.60;;;;;;;17.26;72.80;98773.72;106053;1304;21963;-66
2022/11/19 01:31:18;;;;;;;30.50;8.60;;;;;;;17.33;71.76;98772.59;105951;1306;22013;-65
2022/11/19 01:33:45;;;;;;;28.50;10.10;;;;;;;17.27;72.16;98771.88;106161;1304;21968;-69
2022/11/19 01:36:13;;;;;;;23.10;8.30;;;;;;;17.28;72.27;98764.89;106137;1304;21965;-69
2022/11/19 01:38:39;;;;;;;21.30;8.70;;;;;;;17.33;71.92;98758.18;106149;1304;21970;-66
2022/11/19 01:41:05;;;;;;;23.00;8.70;;;;;;;17.31;71.97;98754.98;106014;1295;21972;-70
2022/11/19 01:44:04;;;;;;;26.90;9.90;;;;;;;17.25;72.35;98748.60;105920;1301;21963;-70
2022/11/19 01:46:35;;;;;;;20.00;8.60;;;;;;;17.33;72.23;98743.48;106018;1304;21981;-65
2022/11/19 01:49:00;;;;;;;;;;;;;;;17.41;71.52;98736.39;105869;1306;21958;-70
2022/11/19 01:51:38;;;;;;;23.20;10.20;;;;;;;17.44;71.42;98733.40;105951;1304;21962;-65
2022/11/19 01:54:25;;;;;;;25.50;10.80;;;;;;;17.46;71.47;98730.24;105993;1304;21955;-65
2022/11/19 01:56:52;;;;;;;26.00;9.60;;;;;;;17.48;71.00;98718.71;105860;1304;21965;-65
2022/11/19 01:59:18;;;;;;;24.10;9.30;;;;;;;17.49;70.88;98710.67;105888;1306;21969;-70
2022/11/19 02:01:44;;;;;;;22.00;9.40;;;;;;;17.37;71.20;98709.55;105863;1303;21955;-64
2022/11/19 02:04:10;;;;;;;18.10;8.80;;;;;;;17.32;71.58;98703.54;105937;1303;21961;-65
2022/11/19 02:06:37;;;;;;;22.40;9.00;;;;;;;17.31;71.51;98705.66;105979;1288;22193;-70
2022/11/19 02:09:03;;;;;;;16.60;9.00;;;;;;;17.40;71.18;98704.04;106002;1304;21982;-70
2022/11/19 02:11:36;;;;;;;20.50;9.50;;;;;;;17.44;70.86;98694.34;106150;1302;21975;-65
2022/11/19 02:14:24;;;;;;;22.20;9.00;;;;;;;17.42;70.87;98693.63;105977;1304;22024;-65
2022/11/19 02:16:50;;;;;;;24.70;8.60;;;;;;;17.40;70.84;98693.95;105908;1301;22014;-65
2022/11/19 02:19:45;;;;;;;21.90;8.30;;;;;;;17.38;70.81;98684.81;106059;1304;22013;-70
2022/11/19 02:22:18;;;;;;;19.40;8.50;;;;;;;17.37;70.71;98671.92;106053;1304;21963;-69
2022/11/19 02:24:53;;;;;;;17.70;8.40;;;;;;;17.35;70.59;98698.84;105925;1305;21999;-64
2022/11/19 02:27:28;;;;;;;17.50;8.50;;;;;;;17.32;70.89;98707.73;106162;1304;21966;-70
2022/11/19 02:30:07;;;;;;;20.00;9.10;;;;;;;17.30;70.82;98719.95;106132;1305;21968;-71
2022/11/19 02:32:43;;;;;;;18.50;9.10;;;;;;;17.30;70.43;98737.11;105941;1306;21965;-65
2022/11/19 02:35:21;;;;;;;20.90;9.90;;;;;;;17.29;70.31;98749.24;105913;1305;22004;-71
2022/11/19 02:37:49;;;;;;;21.80;9.00;;;;;;;17.26;70.26;98747.98;105857;1306;21971;-71
2022/11/19 02:40:24;;;;;;;24.70;9.70;;;;;;;17.19;70.82;98743.68;106041;1304;21975;-71
2022/11/19 02:43:26;;;;;;;25.60;8.20;;;;;;;17.17;70.90;98744.34;106010;1305;21975;-71
2022/11/19 02:45:55;;;;;;;21.30;9.40;;;;;;;17.14;70.98;98747.39;105849;1304;22011;-65
2022/11/19 02:48:48;;;;;;;17.10;8.70;;;;;;;17.08;71.30;98749.02;105881;1306;21968;-71
2022/11/19 02:51:14;;;;;;;21.00;8.10;;;;;;;17.12;70.73;98751.39;105902;1305;21960;-65
2022/11/19 02:53:40;;;;;;;19.90;8.20;;;;;;;17.13;70.50;98759.14;105663;1306;22181;-65
2022/11/19 02:56:16;;;;;;;15.30;8.10;;;;;;;17.11;70.51;98771.70;105938;1304;21962;-65
2022/11/19 03:04:31;;;;;;;16.90;7.30;;;;;;;17.03;70.34;98792.04;105878;1304;21963;-64
2022/11/19 03:07:01;;;;;;;16.90;8.30;;;;;;;17.02;70.17;98797.56;105894;1304;21972;-65
2022/11/19 03:09:27;;;;;;;16.90;7.80;;;;;;;17.03;70.08;98806.19;105989;1304;22028;-71
2022/11/19 03:12:28;;;;;;;18.60;7.70;;;;;;;17.02;70.08;98811.10;105867;1306;21961;-64
2022/11/19 03:18:00;;;;;;;17.20;9.60;;;;;;;17.03;70.31;98824.29;105950;1306;21975;-64
2022/11/19 03:20:30;;;;;;;18.50;9.10;;;;;;;17.07;70.19;98824.56;105927;1305;24041;-71
2022/11/19 03:22:58;;;;;;;18.30;8.60;;;;;;;17.12;70.41;98816.99;105922;1304;21971;-64
2022/11/19 03:25:25;;;;;;;20.20;8.60;;;;;;;17.19;70.09;98820.27;106048;1303;21968;-64
2022/11/19 03:27:53;;;;;;;20.60;9.90;;;;;;;17.22;69.95;98825.02;105920;1304;21977;-70
2022/11/19 03:30:19;;;;;;;16.40;9.40;;;;;;;17.24;69.72;98836.58;106073;1292;21957;-72
2022/11/19 03:32:49;;;;;;;21.60;9.00;;;;;;;17.26;69.66;98838.08;105806;1306;21963;-64
2022/11/19 03:35:18;;;;;;;15.50;8.60;;;;;;;17.31;69.32;98837.94;106042;1305;21964;-64
2022/11/19 03:37:44;;;;;;;16.70;9.20;;;;;;;17.34;68.99;98843.55;105966;1306;22007;-71
2022/11/19 03:40:10;;;;;;;18.40;9.80;;;;;;;17.30;69.01;98846.34;106047;1304;21984;-70
2022/11/19 03:42:36;;;;;;;14.40;9.60;;;;;;;17.26;68.72;98853.85;105757;1306;21972;-67
2022/11/19 03:45:04;;;;;;;15.40;9.40;;;;;;;17.17;68.74;98860.94;105648;1306;21966;-65
2022/11/19 03:47:33;;;;;;;15.60;10.80;;;;;;;17.13;68.70;98873.31;105874;1304;21967;-70
2022/11/19 03:50:06;;;;;;;14.90;10.50;;;;;;;17.09;68.61;98874.77;105998;1304;21976;-65
2022/11/19 03:52:32;;;;;;;14.20;10.10;;;;;;;17.04;68.55;98876.32;105972;1304;21969;-65
2022/11/19 03:54:58;;;;;;;16.20;10.80;;;;;;;16.92;68.70;98882.70;105775;1306;21974;-70
2022/11/19 03:57:24;;;;;;;18.00;10.50;;;;;;;16.89;68.59;98890.69;105928;1305;21968;-67
2022/11/19 03:59:49;;;;;;;19.30;11.20;;;;;;;16.85;68.55;98888.12;105691;1304;22526;-70
2022/11/19 04:02:15;;;;;;;16.20;11.20;;;;;;;16.74;68.66;98893.73;105907;1302;22088;-70
2022/11/19 04:04:42;;;;;;;13.90;10.80;;;;;;;16.70;68.67;98887.60;105761;1306;21961;-70
2022/11/19 04:07:26;;;;;;;16.20;12.30;;;;;;;16.72;68.32;98893.54;106017;1304;21984;-68
2022/11/19 04:09:52;;;;;;;19.50;12.40;;;;;;;16.65;68.17;98899.75;106005;1306;21963;-72
2022/11/19 04:12:21;;;;;;;14.80;12.30;;;;;;;16.59;68.16;98915.20;106002;1305;21957;-66
2022/11/19 04:14:49;;;;;;;19.10;14.40;;;;;;;16.53;68.05;98918.89;106279;1304;21995;-71
2022/11/19 04:17:15;;;;;;;17.80;13.90;;;;;;;16.46;67.92;98918.05;106012;1305;23730;-71
2022/11/19 04:19:42;;;;;;;21.90;15.60;;;;;;;16.38;67.89;98925.48;106010;1304;21978;-66
2022/11/19 04:22:08;;;;;;;22.70;15.40;;;;;;;16.34;67.78;98938.79;105927;1304;21962;-68
2022/11/19 04:24:34;;;;;;;20.30;15.30;;;;;;;16.27;67.77;98952.45;105964;1304;21981;-66
2022/11/19 04:26:59;;;;;;;18.90;15.30;;;;;;;16.19;67.77;98963.05;106020;1304;21961;-71
2022/11/19 04:29:25;;;;;;;19.80;16.10;;;;;;;16.10;68.01;98972.05;106131;1304;21980;-72
2022/11/19 04:31:51;;;;;;;21.90;15.70;;;;;;;16.07;67.94;98979.14;105935;1304;21956;-65
2022/11/19 04:34:17;;;;;;;21.10;15.30;;;;;;;16.00;67.96;98985.52;105950;1301;21965;-71
2022/11/19 04:36:43;;;;;;;20.30;16.30;;;;;;;15.95;68.04;98989.51;105994;1305;21964;-71
2022/11/19 04:39:08;;;;;;;21.70;16.90;;;;;;;15.94;68.03;98990.98;105893;1306;21962;-66
2022/11/19 04:41:35;;;;;;;18.80;16.40;;;;;;;15.94;67.93;99000.55;105933;1305;21966;-66
2022/11/19 04:44:01;;;;;;;22.00;19.20;;;;;;;15.86;68.00;99012.81;105989;1301;21958;-70
2022/11/19 04:46:27;;;;;;;21.40;18.90;;;;;;;15.75;68.09;99019.40;105974;1301;22005;-66
2022/11/19 04:48:52;;;;;;;24.20;18.10;;;;;;;15.77;67.93;99025.70;106010;1304;22105;-70
2022/11/19 04:51:18;;;;;;;24.30;16.60;;;;;;;15.77;67.64;99032.57;106009;1304;21968;-66
2022/11/19 04:53:44;;;;;;;24.70;17.60;;;;;;;15.73;67.51;99037.72;105950;1301;21975;-70
2022/11/19 04:56:09;;;;;;;19.40;16.00;;;;;;;15.68;67.41;99044.59;106117;1305;21968;-66
2022/11/19 04:58:35;;;;;;;20.20;16.50;;;;;;;15.66;67.26;99044.52;106032;1302;22011;-71
2022/11/19 05:01:01;;;;;;;19.40;16.20;;;;;;;15.63;67.12;99051.90;106028;1301;22015;-68
2022/11/19 05:03:26;;;;;;;24.90;17.60;;;;;;;15.60;67.05;99060.55;105929;1305;21979;-66
2022/11/19 05:05:55;;;;;;;22.90;16.90;;;;;;;15.61;66.90;99073.20;105916;1306;21973;-71
2022/11/19 05:08:21;;;;;;;21.00;16.60;;;;;;;15.58;66.76;99082.91;105896;1305;21972;-71
2022/11/19 05:10:48;;;;;;;22.00;17.70;;;;;;;15.52;66.79;99085.86;106022;1305;23728;-70
2022/11/19 05:13:14;;;;;;;23.90;19.20;;;;;;;15.49;66.71;99091.02;106072;1304;22190;-71
2022/11/19 05:15:40;;;;;;;21.70;17.80;;;;;;;15.38;66.92;99101.67;106120;1304;21963;-64
2022/11/19 05:18:06;;;;;;;21.60;16.20;;;;;;;15.32;67.05;99113.48;105960;1304;21974;-65
2022/11/19 05:20:34;;;;;;;21.30;15.90;;;;;;;15.28;67.05;99122.50;105665;1306;21958;-65
2022/11/19 05:23:00;;;;;;;21.80;16.60;;;;;;;15.26;67.13;99142.95;105959;1305;21965;-71
2022/11/19 05:25:25;;;;;;;12.50;8.60;;;;;;;15.20;67.22;99163.05;106037;1304;21972;-70
2022/11/19 05:27:51;;;;;;;7.30;5.20;;;;;;;15.06;66.80;99174.48;105915;1304;21978;-71
2022/11/19 05:30:17;;;;;;;7.60;4.70;;;;;;;14.80;66.62;99187.59;105904;1304;24348;-70
2022/11/19 05:32:45;;;;;;;7.50;4.00;;;;;;;14.68;66.69;99195.41;105970;1304;21960;-70
2022/11/19 05:35:13;;;;;;;6.40;4.70;;;;;;;14.58;66.73;99203.77;105849;1297;21964;-66
2022/11/19 05:37:40;;;;;;;6.80;4.50;;;;;;;14.55;66.65;99206.26;105790;1306;21971;-71
2022/11/19 05:40:07;;;;;;;10.40;5.30;;;;;;;14.46;66.72;99213.00;105935;1305;22017;-65
2022/11/19 05:42:33;;;;;;;6.90;5.20;;;;;;;14.36;66.87;99221.95;105957;1303;21961;-65
2022/11/19 05:44:59;;;;;;;7.60;4.70;;;;;;;14.33;66.84;99233.73;106132;1302;22021;-70
2022/11/19 05:47:25;;;;;;;8.10;5.60;;;;;;;14.28;66.67;99241.90;106145;1300;21970;-71
2022/11/19 05:49:51;;;;;;;6.80;5.30;;;;;;;14.30;66.35;99244.64;106170;1304;21963;-67
2022/11/19 05:52:17;;;;;;;7.20;4.60;;;;;;;14.32;66.11;99252.14;106069;1304;21972;-71
2022/11/19 05:54:44;;;;;;;6.80;4.50;;;;;;;14.27;65.97;99260.30;106006;1289;21966;-71
2022/11/19 05:57:09;;;;;;;8.60;5.60;;;;;;;14.21;66.07;99266.02;106047;1304;21966;-72
2022/11/19 05:59:37;;;;;;;6.50;4.80;;;;;;;14.17;66.29;99279.61;105918;1297;22396;-65
2022/11/19 06:02:03;;;;;;;8.60;5.10;;;;;;;14.18;66.23;99288.55;105936;1305;21971;-72
2022/11/19 06:04:29;;;;;;;7.50;5.20;;;;;;;14.09;66.22;99293.04;105892;1305;22005;-71
2022/11/19 06:06:55;;;;;;;8.80;6.00;;;;;;;14.05;66.32;99294.80;106036;1304;22424;-70
2022/11/19 06:12:32;;;;;;;7.10;5.40;;;;;;;13.53;66.71;99317.75;105213;1310;547878;-63
2022/11/19 06:15:02;;;;;;;;;;;;;;;13.91;65.85;99330.65;105471;1313;21950;-65
2022/11/19 06:17:28;;;;;;;7.30;5.40;;;;;;;13.93;65.76;99337.10;105355;1312;22045;-65
2022/11/19 06:19:54;;;;;;;7.60;5.90;;;;;;;13.82;65.90;99344.06;105375;1311;21997;-65
2022/11/19 06:22:20;;;;;;;8.40;6.20;;;;;;;13.74;65.78;99349.70;105419;1303;22040;-66
2022/11/19 06:24:46;;;;;;;7.20;5.30;;;;;;;13.64;65.57;99363.89;105319;1309;285764;-61
2022/11/19 06:27:13;;;;;;;7.30;4.90;;;;;;;13.56;65.80;99376.53;105726;1309;21977;-61
2022/11/19 06:29:40;;;;;;;6.80;4.70;;;;;;;13.34;66.20;99381.44;105661;1309;21993;-66
2022/11/19 06:32:06;;;;;;;6.20;4.50;;;;;;;13.20;66.22;99393.44;105665;1309;21962;-62
2022/11/19 06:34:33;;;;;;;7.00;4.40;;;;;;;13.06;65.94;99407.70;105673;1309;21978;-65
2022/11/19 06:36:59;;;;;;;5.90;3.60;;;;;;;12.98;65.89;99414.50;105656;1309;22014;-68
2022/11/19 06:39:25;;;;;;;6.20;3.80;;;;;;;12.91;65.78;99425.34;105715;1304;21995;-64
2022/11/19 06:41:51;;;;;;;5.60;3.30;;;;;;;12.81;65.79;99428.88;105756;1308;21979;-67
2022/11/19 06:44:17;;;;;;;5.10;2.80;;;;;;;12.89;65.13;99429.08;105694;1301;21986;-64
2022/11/19 06:46:45;;;;;;;4.40;2.70;;;;;;;12.74;64.63;99438.11;105663;1300;22011;-66
2022/11/19 06:49:10;;;;;;;3.50;2.50;;;;;;;12.68;64.28;99431.97;105666;1309;21953;-64
2022/11/19 06:51:36;;;;;;;5.00;2.30;;;;;;;12.68;64.31;99436.04;105728;1305;21982;-64
2022/11/19 06:54:03;;;;;;;4.00;2.50;;;;;;;12.71;64.07;99436.82;105688;1309;21972;-62
2022/11/19 06:56:29;;;;;;;4.20;2.70;;;;;;;12.70;64.33;99432.61;105720;1309;21966;-64
2022/11/19 06:58:56;;;;;;;4.90;2.30;;;;;;;12.54;64.48;99441.60;105667;1308;21993;-63
2022/11/19 07:01:22;;;;;;;5.00;2.50;;;;;;;12.43;64.53;99449.38;105689;1309;21965;-62
2022/11/19 07:03:48;;;;;;;4.60;2.70;;;;;;;12.36;63.92;99456.66;105696;1309;23703;-66
2022/11/19 07:14:28;;;;;;;3.80;2.80;;;;;;;10.07;74.04;99504.34;105396;1310;548296;-69
2022/11/19 07:16:56;;;;;;;3.20;2.50;;;;;;;12.01;66.76;99497.20;105499;1303;21978;-67
2022/11/19 07:19:21;;;;;;;3.10;2.30;;;;;;;12.28;65.55;99498.12;105226;1312;22016;-66
2022/11/19 07:21:49;;;;;;;3.10;2.00;;;;;;;12.45;64.83;99508.63;105284;1312;21985;-68
2022/11/19 07:24:17;;;;;;;2.70;1.80;;;;;;;12.48;64.12;99515.91;105331;1312;23725;-67
2022/11/19 07:26:45;;;;;;;2.60;1.60;;;;;;;12.52;63.54;99520.70;105201;1310;198862;-68
2022/11/19 07:29:12;;;;;;;3.50;1.90;;;;;;;12.38;63.07;99531.36;105637;1309;21983;-68
2022/11/19 07:31:39;;;;;;;2.90;1.90;;;;;;;12.45;63.46;99542.41;105621;1309;23726;-67
2022/11/19 07:34:08;;;;;;;4.10;1.90;;;;;;;12.55;63.59;99543.48;105664;1309;21980;-70
2022/11/19 07:36:35;;;;;;;2.80;1.80;;;;;;;12.46;63.27;99546.40;105640;1309;21948;-67
2022/11/19 07:39:01;;;;;;;3.10;1.80;;;;;;;12.50;63.09;99544.85;105726;1309;21992;-67
2022/11/19 07:44:11;;;;;;;2.10;1.60;;;;;;;12.57;62.71;99554.48;105689;1309;21993;-68
2022/11/19 07:46:39;;;;;;;2.30;1.80;;;;;;;12.68;62.26;99558.36;105643;1308;23624;-68
2022/11/19 07:49:05;;;;;;;2.60;1.90;;;;;;;12.69;62.49;99569.39;105669;1309;21986;-67
2022/11/19 07:51:31;;;;;;;2.50;1.60;;;;;;;12.74;62.56;99580.48;105568;1309;21951;-69
2022/11/19 07:53:57;;;;;;;3.00;1.80;;;;;;;12.76;62.66;99590.27;105681;1309;21969;-67
2022/11/19 07:56:23;;;;;;;2.40;1.70;;;;;;;12.76;62.40;99594.35;105694;1308;21968;-67
2022/11/19 07:58:49;;;;;;;2.70;1.70;;;;;;;12.74;62.42;99592.11;105839;1309;21975;-71
2022/11/19 08:01:18;;;;;;;2.60;1.70;;;;;;;12.69;61.91;99591.23;105614;1307;21996;-71
2022/11/19 08:03:45;;;;;;;3.20;1.60;;;;;;;12.68;62.22;99603.42;105687;1309;23074;-71
2022/11/19 08:06:14;;;;;;;2.50;1.70;;;;;;;12.54;62.14;99617.95;105659;1305;21975;-71
2022/11/19 08:08:41;;;;;;;3.20;1.50;;;;;;;12.60;62.43;99630.05;105657;1307;22003;-68
2022/11/19 08:11:07;;;;;;;3.80;1.70;;;;;;;12.66;62.26;99646.94;105740;1307;21964;-70
2022/11/19 08:13:33;;;;;;;2.10;1.50;;;;;;;12.57;61.66;99656.75;105650;1308;21970;-69
2022/11/19 08:16:03;;;;;;;3.10;1.70;;;;;;;12.47;61.24;99665.50;105637;1309;21988;-70
2022/11/19 08:18:30;;;;;;;1.70;1.20;;;;;;;12.17;61.03;99673.98;105686;1307;21970;-67
2022/11/19 08:21:01;;;;;;;2.30;1.40;;;;;;;12.13;61.39;99683.23;105375;1309;23624;-69
2022/11/19 08:23:28;;;;;;;2.50;1.40;;;;;;;12.12;61.44;99690.14;105645;1304;21972;-69
2022/11/19 08:25:59;;;;;;;5.10;2.00;;;;;;;12.13;61.70;99693.45;104278;1309;1003136;-68
2022/11/19 08:28:25;;;;;;;2.10;1.50;;;;;;;12.05;61.39;99710.02;105681;1309;21971;-68
2022/11/19 08:30:51;;;;;;;2.20;1.40;;;;;;;11.99;61.86;99729.87;105698;1307;23627;-67
2022/11/19 08:33:17;;;;;;;2.70;1.60;;;;;;;11.95;61.81;99738.61;105701;1308;23675;-70
2022/11/19 08:35:42;;;;;;;1.90;1.30;;;;;;;11.95;61.78;99741.94;105638;1308;21982;-70
2022/11/19 08:38:09;;;;;;;4.40;1.50;;;;;;;11.75;61.19;99758.29;105725;1307;21970;-69
2022/11/19 08:40:34;;;;;;;1.90;1.30;;;;;;;11.67;61.27;99776.27;105681;1304;22031;-69
2022/11/19 08:43:00;;;;;;;2.50;1.00;;;;;;;11.56;61.06;99778.99;105680;1307;21980;-68
2022/11/19 08:45:28;;;;;;;2.00;1.20;;;;;;;11.49;61.28;99784.98;105622;1308;21966;-70
2022/11/19 08:47:58;;;;;;;2.20;1.30;;;;;;;11.45;61.43;99791.23;105636;1309;22275;-68
2022/11/19 08:50:24;;;;;;;1.10;0.90;;;;;;;11.40;61.00;99798.03;105648;1308;21973;-67
2022/11/19 08:52:55;;;;;;;1.20;0.80;;;;;;;11.32;61.20;99800.52;105638;1309;21975;-67
2022/11/19 08:55:21;;;;;;;2.20;1.50;;;;;;;11.34;61.43;99793.09;105705;1307;21959;-67
2022/11/19 08:57:48;;;;;;;3.60;1.20;;;;;;;11.26;61.38;99805.39;105631;1309;22880;-66
2022/11/19 09:00:15;;;;;;;2.10;1.40;;;;;;;11.34;61.96;99822.59;105644;1309;23128;-66
2022/11/19 09:02:40;;;;;;;1.80;1.20;;;;;;;11.43;61.85;99827.27;105676;1309;23502;-66
2022/11/19 09:05:06;;;;;;;3.20;1.30;;;;;;;11.45;60.85;99831.81;105613;1308;21967;-65
2022/11/19 09:07:32;;;;;;;2.20;1.30;;;;;;;11.37;60.54;99845.19;105644;1307;22156;-66
2022/11/19 09:09:58;;;;;;;2.50;1.30;;;;;;;11.39;60.60;99855.30;105618;1308;21978;-67
2022/11/19 09:12:24;;;;;;;1.70;1.20;;;;;;;11.45;60.37;99864.83;105640;1309;21981;-66
2022/11/19 09:14:50;;;;;;;1.70;1.10;;;;;;;11.41;60.17;99872.49;105722;1309;23471;-67
2022/11/19 09:17:16;;;;;;;1.60;0.90;;;;;;;11.30;59.99;99872.40;105679;1308;21958;-65
2022/11/19 09:19:42;;;;;;;2.20;1.30;;;;;;;11.27;60.23;99876.84;105739;1308;21982;-68
2022/11/19 09:22:08;;;;;;;3.00;1.70;;;;;;;11.20;59.59;99886.69;105620;1308;22010;-65
2022/11/19 09:24:34;;;;;;;2.30;1.50;;;;;;;11.09;59.90;99892.37;105597;1308;21992;-68
2022/11/19 09:27:01;;;;;;;1.90;1.20;;;;;;;11.08;59.62;99890.97;105621;1307;21967;-67
2022/11/19 09:29:26;;;;;;;1.80;1.20;;;;;;;10.98;59.21;99898.92;105615;1307;21970;-67
2022/11/19 09:31:52;;;;;;;3.10;1.20;;;;;;;10.80;58.91;99906.14;105642;1305;21986;-68
2022/11/19 09:34:18;;;;;;;1.60;1.10;;;;;;;10.72;59.21;99917.53;105765;1307;21973;-68
2022/11/19 09:36:45;;;;;;;2.50;1.30;;;;;;;10.64;59.40;99933.85;105822;1307;22727;-66
2022/11/19 09:39:10;;;;;;;2.70;1.20;;;;;;;10.68;60.26;99945.86;105771;1300;21961;-68
2022/11/19 09:42:01;;;;;;;2.10;1.10;;;;;;;10.58;59.61;99954.30;105722;1307;21987;-64
2022/11/19 09:44:52;;;;;;;2.90;1.10;;;;;;;10.56;59.57;99955.39;105642;1303;22441;-69
2022/11/19 09:47:36;;;;;;;2.20;1.20;;;;;;;10.77;60.11;99948.31;105633;1308;21971;-68
2022/11/19 09:50:13;;;;;;;1.90;1.30;;;;;;;10.90;59.96;99940.52;105599;1307;22020;-65
2022/11/19 09:53:06;;;;;;;1.20;0.80;;;;;;;10.87;59.59;99941.64;105625;1308;23023;-68
2022/11/19 09:58:30;;;;;;;2.40;1.50;;;;;;;9.67;62.47;99965.55;105259;1310;548193;-63
2022/11/19 10:00:58;;;;;;;2.60;1.40;;;;;;;10.90;60.13;99983.19;105556;1310;21967;-68
2022/11/19 10:03:24;;;;;;;1.90;1.30;;;;;;;11.20;59.75;99983.96;105724;1310;21956;-64
2022/11/19 10:06:11;;;;;;;2.90;1.30;;;;;;;11.19;58.31;99975.90;105868;1310;23726;-68
2022/11/19 10:09:01;;;;;;;3.00;1.20;;;;;;;11.17;58.15;99971.20;105631;1310;23184;-69
2022/11/19 10:11:30;;;;;;;1.90;1.20;;;;;;;11.25;58.44;99969.28;104619;1307;1002501;-64
2022/11/19 10:14:28;;;;;;;2.40;1.40;;;;;;;11.27;58.40;99970.82;105658;1307;21946;-68
2022/11/19 10:17:12;;;;;;;1.80;1.50;;;;;;;11.21;57.57;99975.67;105700;1307;23647;-64
2022/11/19 10:20:12;;;;;;;10.50;5.60;;;;;;;11.26;57.75;99989.81;105685;1307;22422;-68
2022/11/19 10:22:38;;;;;;;3.40;2.70;;;;;;;11.22;57.01;100009.91;105790;1307;21957;-65
2022/11/19 10:25:15;;;;;;;3.00;2.40;;;;;;;11.27;56.70;100023.67;105738;1307;21954;-68
2022/11/19 10:27:51;;;;;;;3.00;2.20;;;;;;;11.04;55.23;100039.23;105782;1307;21968;-63
2022/11/19 10:30:21;;;;;;;3.10;2.30;;;;;;;10.98;55.75;100035.85;105665;1305;21970;-67
2022/11/19 10:32:57;;;;;;;3.50;2.20;;;;;;;11.00;56.59;100030.90;105774;1307;24355;-68
2022/11/19 10:35:50;;;;;;;3.80;2.40;;;;;;;10.88;55.94;100025.52;105682;1307;23598;-64
2022/11/19 10:38:31;;;;;;;3.30;2.30;;;;;;;10.80;56.13;100030.77;105609;1307;22023;-65
2022/11/19 10:41:00;;;;;;;3.70;2.50;;;;;;;10.65;55.74;100041.73;105833;1299;22006;-68
2022/11/19 10:43:29;;;;;;;3.80;2.80;;;;;;;10.67;56.02;100058.00;105790;1305;24322;-68
2022/11/19 10:45:55;;;;;;;4.20;3.00;;;;;;;10.70;56.33;100072.70;105838;1307;23608;-67
2022/11/19 10:48:22;;;;;;;3.90;2.80;;;;;;;10.79;56.46;100089.04;105698;1307;22040;-67
2022/11/19 10:50:49;;;;;;;4.10;2.80;;;;;;;10.96;56.55;100099.61;105718;1307;21965;-64
2022/11/19 10:53:24;;;;;;;4.00;2.80;;;;;;;11.15;56.69;100108.23;105796;1302;21967;-65
2022/11/19 10:55:56;;;;;;;4.00;3.10;;;;;;;11.36;56.51;100111.87;105863;1307;21949;-68
2022/11/19 10:58:28;;;;;;;3.30;2.70;;;;;;;11.54;56.73;100108.70;105817;1307;23715;-65
2022/11/19 11:00:57;;;;;;;3.90;3.10;;;;;;;11.72;56.24;100113.23;105030;1307;1002303;-69
2022/11/19 11:03:36;;;;;;;3.90;3.00;;;;;;;11.84;54.84;100111.05;105764;1307;21964;-69
2022/11/19 11:06:05;;;;;;;4.30;3.20;;;;;;;11.91;54.72;100107.91;105681;1306;21963;-65
2022/11/19 11:08:32;;;;;;;4.40;3.40;;;;;;;12.00;55.12;100102.10;105676;1305;21960;-68
2022/11/19 11:10:58;;;;;;;4.30;3.70;;;;;;;11.92;53.55;100098.03;105697;1307;21968;-69
2022/11/19 11:16:25;;;;;;;3.90;3.10;;;;;;;11.64;53.39;100118.50;105673;1305;21953;-64
2022/11/19 11:18:52;;;;;;;4.40;3.80;;;;;;;11.59;53.63;100122.11;105690;1307;21968;-68
2022/11/19 11:21:32;;;;;;;5.40;3.60;;;;;;;11.58;54.50;100126.70;105571;1307;21972;-68
2022/11/19 11:23:58;;;;;;;4.10;3.10;;;;;;;11.44;53.81;100134.89;105594;1307;21967;-68
2022/11/19 11:26:28;;;;;;;4.60;3.30;;;;;;;11.43;54.12;100138.07;105646;1307;21970;-64
2022/11/19 11:29:25;;;;;;;4.70;3.80;;;;;;;11.47;53.76;100152.41;105644;1307;21997;-64
2022/11/19 11:31:51;;;;;;;5.20;3.60;;;;;;;11.53;54.21;100168.98;105642;1307;23076;-68
2022/11/19 11:34:37;;;;;;;5.60;3.90;;;;;;;11.68;54.78;100180.10;105738;1306;21972;-64
2022/11/19 11:37:04;;;;;;;5.30;4.00;;;;;;;11.69;54.20;100188.69;105694;1307;22029;-64
2022/11/19 11:39:31;;;;;;;4.80;3.50;;;;;;;11.52;53.34;100195.70;105906;1307;22327;-68
2022/11/19 11:42:00;;;;;;;5.80;4.20;;;;;;;11.49;53.49;100196.28;105797;1307;23596;-64
2022/11/19 11:44:33;;;;;;;5.90;4.40;;;;;;;11.47;53.52;100198.26;105663;1307;22041;-65
2022/11/19 11:47:11;;;;;;;6.30;4.40;;;;;;;11.55;54.04;100198.45;107799;1307;21794;-65
2022/11/19 11:49:41;;;;;;;6.70;4.70;;;;;;;11.68;54.20;100198.89;107768;1307;21801;-69
2022/11/19 11:52:10;;;;;;;6.10;4.60;;;;;;;11.76;53.64;100194.54;107619;1308;21816;-69
2022/11/19 11:54:37;;;;;;;6.80;4.70;;;;;;;11.89;54.24;100193.05;107779;1307;22595;-66
2022/11/19 11:57:19;;;;;;;6.20;4.60;;;;;;;11.83;53.41;100198.27;106158;1309;22019;-69